sensor_id;sensor_type;location;lat;lon;timestamp;temperature;humidity
12959;DHT22;6544;51.666;6.634;2023-02-28T00:01:20;2.40;1.00
12959;DHT22;6544;51.666;6.634;2023-02-28T00:03:47;2.40;1.00
12959;DHT22;6544;51.666;6.634;2023-02-28T00:06:14;2.40;1.00
12959;DHT22;6544;51.666;6.634;2023-02-28T00:08:41;2.40;1.00
12959;DHT22;6544;51.666;6.634;2023-02-28T00:11:10;2.40;1.00
12959;DHT22;6544;51.666;6.634;2023-02-28T00:13:39;2.30;1.00
12959;DHT22;6544;51.666;6.634;2023-02-28T00:16:10;2.30;1.00
12959;DHT22;6544;51.666;6.634;2023-02-28T00:18:38;2.40;1.00
12959;DHT22;6544;51.666;6.634;2023-02-28T00:21:06;2.30;1.00
12959;DHT22;6544;51.666;6.634;2023-02-28T00:23:33;2.20;1.00
12959;DHT22;6544;51.666;6.634;2023-02-28T00:26:00;2.20;1.00
12959;DHT22;6544;51.666;6.634;2023-02-28T00:28:27;2.10;1.00
12959;DHT22;6544;51.666;6.634;2023-02-28T00:30:54;2.10;1.00
12959;DHT22;6544;51.666;6.634;2023-02-28T00:33:24;2.10;1.00
12959;DHT22;6544;51.666;6.634;2023-02-28T00:35:51;2.10;1.00
12959;DHT22;6544;51.666;6.634;2023-02-28T00:38:17;2.10;1.00
12959;DHT22;6544;51.666;6.634;2023-02-28T00:40:44;2.00;1.00
12959;DHT22;6544;51.666;6.634;2023-02-28T00:43:12;2.00;1.00
12959;DHT22;6544;51.666;6.634;2023-02-28T00:45:39;1.90;1.00
12959;DHT22;6544;51.666;6.634;2023-02-28T00:48:05;1.90;1.00
12959;DHT22;6544;51.666;6.634;2023-02-28T00:50:34;1.80;1.00
12959;DHT22;6544;51.666;6.634;2023-02-28T00:53:00;1.70;1.00
12959;DHT22;6544;51.666;6.634;2023-02-28T00:55:27;1.80;1.00
12959;DHT22;6544;51.666;6.634;2023-02-28T00:57:54;1.70;1.00
12959;DHT22;6544;51.666;6.634;2023-02-28T01:00:21;1.70;1.00
12959;DHT22;6544;51.666;6.634;2023-02-28T01:02:48;1.80;1.00
12959;DHT22;6544;51.666;6.634;2023-02-28T01:05:15;1.70;1.00
12959;DHT22;6544;51.666;6.634;2023-02-28T01:07:43;1.80;1.00
12959;DHT22;6544;51.666;6.634;2023-02-28T01:10:11;1.70;1.00
12959;DHT22;6544;51.666;6.634;2023-02-28T01:12:38;1.80;1.00
12959;DHT22;6544;51.666;6.634;2023-02-28T01:15:05;1.80;1.00
12959;DHT22;6544;51.666;6.634;2023-02-28T01:17:32;1.80;1.00
12959;DHT22;6544;51.666;6.634;2023-02-28T01:19:59;1.80;1.00
12959;DHT22;6544;51.666;6.634;2023-02-28T01:22:26;1.80;1.00
12959;DHT22;6544;51.666;6.634;2023-02-28T01:24:55;1.90;1.00
12959;DHT22;6544;51.666;6.634;2023-02-28T01:27:21;1.80;1.00
12959;DHT22;6544;51.666;6.634;2023-02-28T01:29:50;1.90;1.00
12959;DHT22;6544;51.666;6.634;2023-02-28T01:32:17;1.80;1.00
12959;DHT22;6544;51.666;6.634;2023-02-28T01:34:44;1.80;1.00
12959;DHT22;6544;51.666;6.634;2023-02-28T01:37:10;1.80;1.00
12959;DHT22;6544;51.666;6.634;2023-02-28T01:39:37;1.80;1.00
12959;DHT22;6544;51.666;6.634;2023-02-28T01:42:07;1.70;1.00
12959;DHT22;6544;51.666;6.634;2023-02-28T01:44:58;1.60;1.00
12959;DHT22;6544;51.666;6.634;2023-02-28T01:47:28;1.50;1.00
12959;DHT22;6544;51.666;6.634;2023-02-28T01:49:56;1.50;1.00
12959;DHT22;6544;51.666;6.634;2023-02-28T01:52:24;1.40;1.00
12959;DHT22;6544;51.666;6.634;2023-02-28T01:54:53;1.40;1.00
12959;DHT22;6544;51.666;6.634;2023-02-28T01:57:25;1.30;1.00
12959;DHT22;6544;51.666;6.634;2023-02-28T01:59:57;1.20;1.00
12959;DHT22;6544;51.666;6.634;2023-02-28T02:02:27;1.20;1.00
12959;DHT22;6544;51.666;6.634;2023-02-28T02:04:57;1.40;1.00
12959;DHT22;6544;51.666;6.634;2023-02-28T02:07:29;1.40;1.00
12959;DHT22;6544;51.666;6.634;2023-02-28T02:10:03;1.40;1.00
12959;DHT22;6544;51.666;6.634;2023-02-28T02:12:39;1.40;1.00
12959;DHT22;6544;51.666;6.634;2023-02-28T02:15:14;1.40;1.00
12959;DHT22;6544;51.666;6.634;2023-02-28T02:17:45;1.50;1.00
12959;DHT22;6544;51.666;6.634;2023-02-28T02:20:40;1.50;1.00
12959;DHT22;6544;51.666;6.634;2023-02-28T02:23:28;1.60;1.00
12959;DHT22;6544;51.666;6.634;2023-02-28T02:26:02;1.60;1.00
12959;DHT22;6544;51.666;6.634;2023-02-28T02:32:14;1.70;1.00
12959;DHT22;6544;51.666;6.634;2023-02-28T02:34:55;1.70;1.00
12959;DHT22;6544;51.666;6.634;2023-02-28T02:37:29;1.70;1.00
12959;DHT22;6544;51.666;6.634;2023-02-28T02:40:03;1.60;1.00
12959;DHT22;6544;51.666;6.634;2023-02-28T02:42:39;1.60;1.00
12959;DHT22;6544;51.666;6.634;2023-02-28T02:45:10;1.40;1.00
12959;DHT22;6544;51.666;6.634;2023-02-28T02:47:39;1.40;1.00
12959;DHT22;6544;51.666;6.634;2023-02-28T02:50:12;1.40;1.00
12959;DHT22;6544;51.666;6.634;2023-02-28T02:52:45;1.40;1.00
12959;DHT22;6544;51.666;6.634;2023-02-28T02:55:14;1.30;1.00
12959;DHT22;6544;51.666;6.634;2023-02-28T02:57:47;1.40;1.00
12959;DHT22;6544;51.666;6.634;2023-02-28T03:00:16;1.20;1.00
12959;DHT22;6544;51.666;6.634;2023-02-28T03:02:45;1.40;1.00
12959;DHT22;6544;51.666;6.634;2023-02-28T03:05:19;1.40;1.00
12959;DHT22;6544;51.666;6.634;2023-02-28T03:07:48;1.00;1.00
12959;DHT22;6544;51.666;6.634;2023-02-28T03:10:35;0.90;1.00
12959;DHT22;6544;51.666;6.634;2023-02-28T03:13:36;0.80;1.00
12959;DHT22;6544;51.666;6.634;2023-02-28T03:16:28;0.70;1.00
12959;DHT22;6544;51.666;6.634;2023-02-28T03:19:03;0.80;1.00
12959;DHT22;6544;51.666;6.634;2023-02-28T03:21:37;0.90;1.00
12959;DHT22;6544;51.666;6.634;2023-02-28T03:24:08;0.90;1.00
12959;DHT22;6544;51.666;6.634;2023-02-28T03:26:39;0.80;1.00
12959;DHT22;6544;51.666;6.634;2023-02-28T03:29:15;0.90;1.00
12959;DHT22;6544;51.666;6.634;2023-02-28T03:31:46;1.00;1.00
12959;DHT22;6544;51.666;6.634;2023-02-28T03:34:19;1.00;1.00
12959;DHT22;6544;51.666;6.634;2023-02-28T03:36:53;1.10;1.00
12959;DHT22;6544;51.666;6.634;2023-02-28T03:39:26;1.20;1.00
12959;DHT22;6544;51.666;6.634;2023-02-28T03:41:57;1.10;1.00
12959;DHT22;6544;51.666;6.634;2023-02-28T03:44:30;1.20;1.00
12959;DHT22;6544;51.666;6.634;2023-02-28T03:47:02;1.20;1.00
12959;DHT22;6544;51.666;6.634;2023-02-28T03:49:33;1.20;1.00
12959;DHT22;6544;51.666;6.634;2023-02-28T03:52:04;1.20;1.00
12959;DHT22;6544;51.666;6.634;2023-02-28T03:54:36;1.10;1.00
12959;DHT22;6544;51.666;6.634;2023-02-28T03:57:10;1.00;1.00
12959;DHT22;6544;51.666;6.634;2023-02-28T03:59:42;1.10;1.00
12959;DHT22;6544;51.666;6.634;2023-02-28T04:02:10;1.10;1.00
12959;DHT22;6544;51.666;6.634;2023-02-28T04:04:36;1.10;1.00
12959;DHT22;6544;51.666;6.634;2023-02-28T04:07:08;1.10;1.00
12959;DHT22;6544;51.666;6.634;2023-02-28T04:09:35;1.00;1.00
12959;DHT22;6544;51.666;6.634;2023-02-28T04:12:02;0.90;1.00
12959;DHT22;6544;51.666;6.634;2023-02-28T04:14:29;0.90;1.00
12959;DHT22;6544;51.666;6.634;2023-02-28T04:16:56;0.90;1.00
12959;DHT22;6544;51.666;6.634;2023-02-28T04:19:23;0.90;1.00
12959;DHT22;6544;51.666;6.634;2023-02-28T04:21:51;0.80;1.00
12959;DHT22;6544;51.666;6.634;2023-02-28T04:24:22;0.50;1.00
12959;DHT22;6544;51.666;6.634;2023-02-28T04:26:51;0.10;1.00
12959;DHT22;6544;51.666;6.634;2023-02-28T04:29:20;-0.20;4.80
12959;DHT22;6544;51.666;6.634;2023-02-28T04:31:47;-0.10;23.60
12959;DHT22;6544;51.666;6.634;2023-02-28T04:34:14;0.00;6.80
12959;DHT22;6544;51.666;6.634;2023-02-28T04:36:41;0.20;1.00
12959;DHT22;6544;51.666;6.634;2023-02-28T04:39:08;0.40;1.00
12959;DHT22;6544;51.666;6.634;2023-02-28T04:41:37;0.60;1.00
12959;DHT22;6544;51.666;6.634;2023-02-28T04:44:04;0.60;1.00
12959;DHT22;6544;51.666;6.634;2023-02-28T04:46:31;0.70;1.00
12959;DHT22;6544;51.666;6.634;2023-02-28T04:48:58;0.60;1.00
12959;DHT22;6544;51.666;6.634;2023-02-28T04:51:26;0.60;1.00
12959;DHT22;6544;51.666;6.634;2023-02-28T04:53:54;0.60;1.00
12959;DHT22;6544;51.666;6.634;2023-02-28T04:56:21;0.60;1.00
12959;DHT22;6544;51.666;6.634;2023-02-28T04:58:49;0.40;1.00
12959;DHT22;6544;51.666;6.634;2023-02-28T05:01:19;0.40;1.00
12959;DHT22;6544;51.666;6.634;2023-02-28T05:03:47;0.60;1.00
12959;DHT22;6544;51.666;6.634;2023-02-28T05:06:14;0.70;1.00
12959;DHT22;6544;51.666;6.634;2023-02-28T05:08:41;0.60;1.00
12959;DHT22;6544;51.666;6.634;2023-02-28T05:11:15;0.60;1.00
12959;DHT22;6544;51.666;6.634;2023-02-28T05:13:42;0.60;1.00
12959;DHT22;6544;51.666;6.634;2023-02-28T05:16:10;0.70;1.00
12959;DHT22;6544;51.666;6.634;2023-02-28T05:18:37;0.60;1.00
12959;DHT22;6544;51.666;6.634;2023-02-28T05:21:04;0.50;1.00
12959;DHT22;6544;51.666;6.634;2023-02-28T05:23:32;0.40;1.00
12959;DHT22;6544;51.666;6.634;2023-02-28T05:25:59;0.50;1.00
12959;DHT22;6544;51.666;6.634;2023-02-28T05:28:25;0.40;1.00
12959;DHT22;6544;51.666;6.634;2023-02-28T05:30:52;0.40;1.00
12959;DHT22;6544;51.666;6.634;2023-02-28T05:33:20;0.30;1.00
12959;DHT22;6544;51.666;6.634;2023-02-28T05:35:47;0.40;1.00
12959;DHT22;6544;51.666;6.634;2023-02-28T05:38:14;0.50;1.00
12959;DHT22;6544;51.666;6.634;2023-02-28T05:40:41;0.30;1.00
12959;DHT22;6544;51.666;6.634;2023-02-28T05:43:10;0.40;1.00
12959;DHT22;6544;51.666;6.634;2023-02-28T05:45:38;0.40;1.00
12959;DHT22;6544;51.666;6.634;2023-02-28T05:48:05;0.40;1.00
12959;DHT22;6544;51.666;6.634;2023-02-28T05:50:34;0.30;1.00
12959;DHT22;6544;51.666;6.634;2023-02-28T05:53:01;0.50;1.00
12959;DHT22;6544;51.666;6.634;2023-02-28T05:55:28;0.50;1.00
12959;DHT22;6544;51.666;6.634;2023-02-28T05:57:55;0.50;1.00
12959;DHT22;6544;51.666;6.634;2023-02-28T06:00:22;0.40;1.00
12959;DHT22;6544;51.666;6.634;2023-02-28T06:02:49;0.20;1.00
12959;DHT22;6544;51.666;6.634;2023-02-28T06:05:17;0.20;1.00
12959;DHT22;6544;51.666;6.634;2023-02-28T06:07:45;0.30;1.00
12959;DHT22;6544;51.666;6.634;2023-02-28T06:10:13;0.20;1.00
12959;DHT22;6544;51.666;6.634;2023-02-28T06:12:41;0.10;1.00
12959;DHT22;6544;51.666;6.634;2023-02-28T06:15:12;0.00;1.00
12959;DHT22;6544;51.666;6.634;2023-02-28T06:17:39;0.00;1.00
12959;DHT22;6544;51.666;6.634;2023-02-28T06:20:07;0.00;1.00
12959;DHT22;6544;51.666;6.634;2023-02-28T06:22:35;0.10;1.00
12959;DHT22;6544;51.666;6.634;2023-02-28T06:25:04;0.20;1.00
12959;DHT22;6544;51.666;6.634;2023-02-28T06:27:31;0.20;1.00
12959;DHT22;6544;51.666;6.634;2023-02-28T06:29:58;0.20;1.00
12959;DHT22;6544;51.666;6.634;2023-02-28T06:32:25;0.20;1.00
12959;DHT22;6544;51.666;6.634;2023-02-28T06:34:52;0.20;1.00
12959;DHT22;6544;51.666;6.634;2023-02-28T06:37:19;0.30;1.00
12959;DHT22;6544;51.666;6.634;2023-02-28T06:39:46;0.30;1.00
12959;DHT22;6544;51.666;6.634;2023-02-28T06:42:14;0.30;1.00
12959;DHT22;6544;51.666;6.634;2023-02-28T06:44:41;0.30;1.00
12959;DHT22;6544;51.666;6.634;2023-02-28T06:47:09;0.20;1.00
12959;DHT22;6544;51.666;6.634;2023-02-28T06:49:36;0.20;1.00
12959;DHT22;6544;51.666;6.634;2023-02-28T06:52:04;0.30;1.00
12959;DHT22;6544;51.666;6.634;2023-02-28T06:54:31;0.30;1.00
12959;DHT22;6544;51.666;6.634;2023-02-28T06:56:58;0.30;1.00
12959;DHT22;6544;51.666;6.634;2023-02-28T06:59:26;0.30;1.00
12959;DHT22;6544;51.666;6.634;2023-02-28T07:01:53;0.30;1.00
12959;DHT22;6544;51.666;6.634;2023-02-28T07:04:20;0.30;1.00
12959;DHT22;6544;51.666;6.634;2023-02-28T07:06:47;0.20;1.00
12959;DHT22;6544;51.666;6.634;2023-02-28T07:09:14;0.30;1.00
12959;DHT22;6544;51.666;6.634;2023-02-28T07:11:41;0.30;1.00
12959;DHT22;6544;51.666;6.634;2023-02-28T07:14:09;0.20;1.00
12959;DHT22;6544;51.666;6.634;2023-02-28T07:16:37;0.20;1.00
12959;DHT22;6544;51.666;6.634;2023-02-28T07:19:05;0.10;1.00
12959;DHT22;6544;51.666;6.634;2023-02-28T07:21:31;0.00;1.00
12959;DHT22;6544;51.666;6.634;2023-02-28T07:23:58;0.10;1.00
12959;DHT22;6544;51.666;6.634;2023-02-28T07:26:25;0.10;1.00
12959;DHT22;6544;51.666;6.634;2023-02-28T07:28:52;0.10;1.00
12959;DHT22;6544;51.666;6.634;2023-02-28T07:31:19;0.10;1.00
12959;DHT22;6544;51.666;6.634;2023-02-28T07:33:48;0.10;1.00
12959;DHT22;6544;51.666;6.634;2023-02-28T07:36:16;0.10;1.00
12959;DHT22;6544;51.666;6.634;2023-02-28T07:38:45;0.00;15.40
12959;DHT22;6544;51.666;6.634;2023-02-28T07:41:14;-0.10;1.00
12959;DHT22;6544;51.666;6.634;2023-02-28T07:43:40;0.00;1.00
12959;DHT22;6544;51.666;6.634;2023-02-28T07:46:10;-0.10;1.00
12959;DHT22;6544;51.666;6.634;2023-02-28T07:48:37;-0.30;1.00
12959;DHT22;6544;51.666;6.634;2023-02-28T07:51:05;-0.40;23.90
12959;DHT22;6544;51.666;6.634;2023-02-28T07:53:32;-0.20;19.60
12959;DHT22;6544;51.666;6.634;2023-02-28T07:56:01;-0.20;16.80
12959;DHT22;6544;51.666;6.634;2023-02-28T07:58:29;0.00;2.30
12959;DHT22;6544;51.666;6.634;2023-02-28T08:00:57;0.20;1.00
12959;DHT22;6544;51.666;6.634;2023-02-28T08:03:24;0.30;1.00
12959;DHT22;6544;51.666;6.634;2023-02-28T08:05:51;0.30;1.00
12959;DHT22;6544;51.666;6.634;2023-02-28T08:08:20;0.40;1.00
12959;DHT22;6544;51.666;6.634;2023-02-28T08:10:47;0.50;1.00
12959;DHT22;6544;51.666;6.634;2023-02-28T08:13:14;0.50;1.00
12959;DHT22;6544;51.666;6.634;2023-02-28T08:15:41;0.60;1.00
12959;DHT22;6544;51.666;6.634;2023-02-28T08:18:09;0.70;1.00
12959;DHT22;6544;51.666;6.634;2023-02-28T08:20:36;0.80;1.00
12959;DHT22;6544;51.666;6.634;2023-02-28T08:23:03;0.90;1.00
12959;DHT22;6544;51.666;6.634;2023-02-28T08:25:31;1.00;1.00
12959;DHT22;6544;51.666;6.634;2023-02-28T08:27:58;1.10;1.00
12959;DHT22;6544;51.666;6.634;2023-02-28T08:30:25;1.30;1.00
12959;DHT22;6544;51.666;6.634;2023-02-28T08:32:52;1.30;1.00
12959;DHT22;6544;51.666;6.634;2023-02-28T08:35:20;1.50;1.00
12959;DHT22;6544;51.666;6.634;2023-02-28T08:37:48;1.60;1.00
12959;DHT22;6544;51.666;6.634;2023-02-28T08:40:15;1.70;1.00
12959;DHT22;6544;51.666;6.634;2023-02-28T08:42:45;1.80;1.00
12959;DHT22;6544;51.666;6.634;2023-02-28T08:45:13;1.90;1.00
12959;DHT22;6544;51.666;6.634;2023-02-28T08:47:40;2.00;1.00
12959;DHT22;6544;51.666;6.634;2023-02-28T08:50:08;2.10;1.00
12959;DHT22;6544;51.666;6.634;2023-02-28T08:52:35;2.30;1.00
12959;DHT22;6544;51.666;6.634;2023-02-28T08:55:04;2.30;1.00
12959;DHT22;6544;51.666;6.634;2023-02-28T08:57:31;2.40;1.00
12959;DHT22;6544;51.666;6.634;2023-02-28T09:00:00;2.50;1.00
12959;DHT22;6544;51.666;6.634;2023-02-28T09:02:29;2.50;1.00
12959;DHT22;6544;51.666;6.634;2023-02-28T09:04:56;2.70;1.00
12959;DHT22;6544;51.666;6.634;2023-02-28T09:07:23;2.80;1.00
12959;DHT22;6544;51.666;6.634;2023-02-28T09:09:50;2.80;1.00
12959;DHT22;6544;51.666;6.634;2023-02-28T09:12:20;3.00;1.00
12959;DHT22;6544;51.666;6.634;2023-02-28T09:14:47;3.00;1.00
12959;DHT22;6544;51.666;6.634;2023-02-28T09:17:16;3.10;1.00
12959;DHT22;6544;51.666;6.634;2023-02-28T09:19:43;3.20;1.00
12959;DHT22;6544;51.666;6.634;2023-02-28T09:22:10;3.30;1.00
12959;DHT22;6544;51.666;6.634;2023-02-28T09:24:37;3.40;1.00
12959;DHT22;6544;51.666;6.634;2023-02-28T09:27:05;3.60;1.00
12959;DHT22;6544;51.666;6.634;2023-02-28T09:29:32;3.60;1.00
12959;DHT22;6544;51.666;6.634;2023-02-28T09:32:00;3.80;1.00
12959;DHT22;6544;51.666;6.634;2023-02-28T09:34:28;3.90;1.00
12959;DHT22;6544;51.666;6.634;2023-02-28T09:36:56;3.90;1.00
12959;DHT22;6544;51.666;6.634;2023-02-28T09:39:24;4.10;1.00
12959;DHT22;6544;51.666;6.634;2023-02-28T09:41:53;4.20;1.00
12959;DHT22;6544;51.666;6.634;2023-02-28T09:44:26;4.30;1.00
12959;DHT22;6544;51.666;6.634;2023-02-28T09:46:57;4.30;1.00
12959;DHT22;6544;51.666;6.634;2023-02-28T09:49:33;4.30;1.00
12959;DHT22;6544;51.666;6.634;2023-02-28T09:52:04;4.40;1.00
12959;DHT22;6544;51.666;6.634;2023-02-28T09:54:34;4.40;1.00
12959;DHT22;6544;51.666;6.634;2023-02-28T09:57:06;4.50;1.00
12959;DHT22;6544;51.666;6.634;2023-02-28T09:59:44;4.50;99.90
12959;DHT22;6544;51.666;6.634;2023-02-28T10:02:34;4.50;1.00
12959;DHT22;6544;51.666;6.634;2023-02-28T10:05:09;4.60;99.90
12959;DHT22;6544;51.666;6.634;2023-02-28T10:08:00;4.60;99.90
12959;DHT22;6544;51.666;6.634;2023-02-28T10:10:29;4.70;99.90
12959;DHT22;6544;51.666;6.634;2023-02-28T10:13:01;4.80;99.90
12959;DHT22;6544;51.666;6.634;2023-02-28T10:15:31;4.80;99.90
12959;DHT22;6544;51.666;6.634;2023-02-28T10:18:02;4.90;99.90
12959;DHT22;6544;51.666;6.634;2023-02-28T10:20:34;5.00;99.90
12959;DHT22;6544;51.666;6.634;2023-02-28T10:23:05;5.10;99.90
12959;DHT22;6544;51.666;6.634;2023-02-28T10:25:38;5.10;99.90
12959;DHT22;6544;51.666;6.634;2023-02-28T10:28:10;5.20;99.90
12959;DHT22;6544;51.666;6.634;2023-02-28T10:30:40;5.20;99.90
12959;DHT22;6544;51.666;6.634;2023-02-28T10:33:22;5.40;99.90
12959;DHT22;6544;51.666;6.634;2023-02-28T10:35:51;5.50;99.90
12959;DHT22;6544;51.666;6.634;2023-02-28T10:38:20;5.60;99.90
12959;DHT22;6544;51.666;6.634;2023-02-28T10:40:48;5.70;99.90
12959;DHT22;6544;51.666;6.634;2023-02-28T10:43:20;5.80;99.90
12959;DHT22;6544;51.666;6.634;2023-02-28T10:45:59;5.90;99.90
12959;DHT22;6544;51.666;6.634;2023-02-28T10:48:31;6.00;99.90
12959;DHT22;6544;51.666;6.634;2023-02-28T10:51:01;6.00;99.90
12959;DHT22;6544;51.666;6.634;2023-02-28T10:53:33;6.10;99.90
12959;DHT22;6544;51.666;6.634;2023-02-28T10:56:03;6.00;99.90
12959;DHT22;6544;51.666;6.634;2023-02-28T10:58:46;6.00;99.90
12959;DHT22;6544;51.666;6.634;2023-02-28T11:01:14;6.20;99.90
12959;DHT22;6544;51.666;6.634;2023-02-28T11:03:42;6.30;99.90
12959;DHT22;6544;51.666;6.634;2023-02-28T11:06:15;6.50;99.90
12959;DHT22;6544;51.666;6.634;2023-02-28T11:08:48;6.50;99.90
12959;DHT22;6544;51.666;6.634;2023-02-28T11:11:16;6.40;99.90
12959;DHT22;6544;51.666;6.634;2023-02-28T11:13:44;6.50;99.90
12959;DHT22;6544;51.666;6.634;2023-02-28T11:16:14;6.60;99.90
12959;DHT22;6544;51.666;6.634;2023-02-28T11:18:56;6.70;99.90
12959;DHT22;6544;51.666;6.634;2023-02-28T11:21:28;6.90;99.90
12959;DHT22;6544;51.666;6.634;2023-02-28T11:24:00;7.00;99.90
12959;DHT22;6544;51.666;6.634;2023-02-28T11:26:39;7.00;99.90
12959;DHT22;6544;51.666;6.634;2023-02-28T11:29:17;6.90;99.90
12959;DHT22;6544;51.666;6.634;2023-02-28T11:32:02;7.00;99.90
12959;DHT22;6544;51.666;6.634;2023-02-28T11:34:30;7.20;99.90
12959;DHT22;6544;51.666;6.634;2023-02-28T11:36:59;7.20;99.90
12959;DHT22;6544;51.666;6.634;2023-02-28T11:39:30;7.30;99.90
12959;DHT22;6544;51.666;6.634;2023-02-28T11:42:16;7.50;99.90
12959;DHT22;6544;51.666;6.634;2023-02-28T11:44:55;7.60;99.90
12959;DHT22;6544;51.666;6.634;2023-02-28T11:47:32;7.50;99.90
12959;DHT22;6544;51.666;6.634;2023-02-28T11:50:18;7.50;99.90
12959;DHT22;6544;51.666;6.634;2023-02-28T11:52:53;7.70;99.90
12959;DHT22;6544;51.666;6.634;2023-02-28T11:55:25;7.70;99.90
12959;DHT22;6544;51.666;6.634;2023-02-28T11:58:15;7.70;99.90
12959;DHT22;6544;51.666;6.634;2023-02-28T12:00:59;7.70;99.90
12959;DHT22;6544;51.666;6.634;2023-02-28T12:03:34;7.80;99.90
12959;DHT22;6544;51.666;6.634;2023-02-28T12:06:18;7.70;99.90
12959;DHT22;6544;51.666;6.634;2023-02-28T12:09:08;7.70;99.90
12959;DHT22;6544;51.666;6.634;2023-02-28T12:11:47;7.90;99.90
12959;DHT22;6544;51.666;6.634;2023-02-28T12:17:00;8.20;99.90
12959;DHT22;6544;51.666;6.634;2023-02-28T12:19:44;8.10;99.90
12959;DHT22;6544;51.666;6.634;2023-02-28T12:22:29;8.00;99.90
12959;DHT22;6544;51.666;6.634;2023-02-28T12:25:24;7.80;99.90
12959;DHT22;6544;51.666;6.634;2023-02-28T12:27:55;8.10;99.90
12959;DHT22;6544;51.666;6.634;2023-02-28T12:30:24;8.10;99.90
12959;DHT22;6544;51.666;6.634;2023-02-28T12:32:54;8.10;99.90
12959;DHT22;6544;51.666;6.634;2023-02-28T12:35:25;8.20;99.90
12959;DHT22;6544;51.666;6.634;2023-02-28T12:37:57;8.20;99.90
12959;DHT22;6544;51.666;6.634;2023-02-28T12:40:43;8.30;99.90
12959;DHT22;6544;51.666;6.634;2023-02-28T12:43:13;8.50;99.90
12959;DHT22;6544;51.666;6.634;2023-02-28T12:45:44;8.80;99.90
12959;DHT22;6544;51.666;6.634;2023-02-28T12:48:17;8.70;99.90
12959;DHT22;6544;51.666;6.634;2023-02-28T12:50:47;9.00;99.90
12959;DHT22;6544;51.666;6.634;2023-02-28T12:53:21;9.00;99.90
12959;DHT22;6544;51.666;6.634;2023-02-28T12:55:59;9.00;99.90
12959;DHT22;6544;51.666;6.634;2023-02-28T12:58:33;8.60;99.90
12959;DHT22;6544;51.666;6.634;2023-02-28T13:04:43;9.40;99.90
12959;DHT22;6544;51.666;6.634;2023-02-28T13:07:32;9.40;99.90
12959;DHT22;6544;51.666;6.634;2023-02-28T13:10:04;9.60;99.90
12959;DHT22;6544;51.666;6.634;2023-02-28T13:12:35;9.10;99.90
12959;DHT22;6544;51.666;6.634;2023-02-28T13:15:07;9.30;99.90
12959;DHT22;6544;51.666;6.634;2023-02-28T13:17:39;9.20;99.90
12959;DHT22;6544;51.666;6.634;2023-02-28T13:20:16;9.10;99.90
12959;DHT22;6544;51.666;6.634;2023-02-28T13:22:44;8.80;99.90
12959;DHT22;6544;51.666;6.634;2023-02-28T13:34:40;8.50;99.90
12959;DHT22;6544;51.666;6.634;2023-02-28T13:37:35;8.50;99.90
12959;DHT22;6544;51.666;6.634;2023-02-28T13:40:27;8.70;99.90
12959;DHT22;6544;51.666;6.634;2023-02-28T13:42:54;8.60;99.90
12959;DHT22;6544;51.666;6.634;2023-02-28T13:45:27;8.30;99.90
12959;DHT22;6544;51.666;6.634;2023-02-28T13:47:59;8.30;99.90
12959;DHT22;6544;51.666;6.634;2023-02-28T13:50:34;8.10;99.90
12959;DHT22;6544;51.666;6.634;2023-02-28T13:53:33;8.20;99.90
12959;DHT22;6544;51.666;6.634;2023-02-28T13:56:10;8.40;99.90
12959;DHT22;6544;51.666;6.634;2023-02-28T13:58:51;8.10;99.90
12959;DHT22;6544;51.666;6.634;2023-02-28T14:01:39;7.90;99.90
12959;DHT22;6544;51.666;6.634;2023-02-28T14:07:24;7.80;99.90
12959;DHT22;6544;51.666;6.634;2023-02-28T14:10:00;7.80;99.90
12959;DHT22;6544;51.666;6.634;2023-02-28T14:15:43;7.70;99.90
12959;DHT22;6544;51.666;6.634;2023-02-28T14:18:18;7.80;99.90
12959;DHT22;6544;51.666;6.634;2023-02-28T14:20:48;7.80;99.90
12959;DHT22;6544;51.666;6.634;2023-02-28T14:23:32;7.60;99.90
12959;DHT22;6544;51.666;6.634;2023-02-28T14:26:06;7.50;99.90
12959;DHT22;6544;51.666;6.634;2023-02-28T14:28:54;7.40;99.90
12959;DHT22;6544;51.666;6.634;2023-02-28T14:31:28;7.40;99.90
12959;DHT22;6544;51.666;6.634;2023-02-28T14:34:31;7.40;99.90
12959;DHT22;6544;51.666;6.634;2023-02-28T14:37:01;7.40;99.90
12959;DHT22;6544;51.666;6.634;2023-02-28T14:39:31;7.10;99.90
12959;DHT22;6544;51.666;6.634;2023-02-28T14:41:58;7.30;99.90
12959;DHT22;6544;51.666;6.634;2023-02-28T14:44:28;7.10;99.90
12959;DHT22;6544;51.666;6.634;2023-02-28T14:46:57;7.20;99.90
12959;DHT22;6544;51.666;6.634;2023-02-28T14:49:27;7.10;99.90
12959;DHT22;6544;51.666;6.634;2023-02-28T14:52:03;7.20;99.90
12959;DHT22;6544;51.666;6.634;2023-02-28T14:54:33;7.20;99.90
12959;DHT22;6544;51.666;6.634;2023-02-28T14:57:01;7.10;99.90
12959;DHT22;6544;51.666;6.634;2023-02-28T14:59:29;7.10;99.90
12959;DHT22;6544;51.666;6.634;2023-02-28T15:02:16;6.90;99.90
12959;DHT22;6544;51.666;6.634;2023-02-28T15:04:43;6.70;99.90
12959;DHT22;6544;51.666;6.634;2023-02-28T15:07:18;6.80;99.90
12959;DHT22;6544;51.666;6.634;2023-02-28T15:09:46;6.80;99.90
12959;DHT22;6544;51.666;6.634;2023-02-28T15:12:14;6.80;99.90
12959;DHT22;6544;51.666;6.634;2023-02-28T15:14:43;6.80;99.90
12959;DHT22;6544;51.666;6.634;2023-02-28T15:17:23;6.70;99.90
12959;DHT22;6544;51.666;6.634;2023-02-28T15:19:52;6.60;99.90
12959;DHT22;6544;51.666;6.634;2023-02-28T15:22:24;6.50;99.90
12959;DHT22;6544;51.666;6.634;2023-02-28T15:24:56;6.50;99.90
12959;DHT22;6544;51.666;6.634;2023-02-28T15:27:25;6.50;99.90
12959;DHT22;6544;51.666;6.634;2023-02-28T15:29:55;6.40;99.90
12959;DHT22;6544;51.666;6.634;2023-02-28T15:32:28;6.40;99.90
12959;DHT22;6544;51.666;6.634;2023-02-28T15:34:55;6.40;99.90
12959;DHT22;6544;51.666;6.634;2023-02-28T15:37:38;6.40;99.90
12959;DHT22;6544;51.666;6.634;2023-02-28T15:40:13;6.50;99.90
12959;DHT22;6544;51.666;6.634;2023-02-28T15:42:40;6.40;99.90
12959;DHT22;6544;51.666;6.634;2023-02-28T15:45:27;6.20;99.90
12959;DHT22;6544;51.666;6.634;2023-02-28T15:47:54;6.30;99.90
12959;DHT22;6544;51.666;6.634;2023-02-28T15:50:21;6.20;99.90
12959;DHT22;6544;51.666;6.634;2023-02-28T15:52:48;6.20;99.90
12959;DHT22;6544;51.666;6.634;2023-02-28T15:55:19;6.10;99.90
12959;DHT22;6544;51.666;6.634;2023-02-28T15:57:49;6.20;99.90
12959;DHT22;6544;51.666;6.634;2023-02-28T16:00:20;6.30;99.90
12959;DHT22;6544;51.666;6.634;2023-02-28T16:02:47;6.20;99.90
12959;DHT22;6544;51.666;6.634;2023-02-28T16:05:24;6.30;99.90
12959;DHT22;6544;51.666;6.634;2023-02-28T16:07:57;6.30;99.90
12959;DHT22;6544;51.666;6.634;2023-02-28T16:10:29;6.30;99.90
12959;DHT22;6544;51.666;6.634;2023-02-28T16:12:56;6.30;99.90
12959;DHT22;6544;51.666;6.634;2023-02-28T16:15:25;6.10;99.90
12959;DHT22;6544;51.666;6.634;2023-02-28T16:17:53;6.20;99.90
12959;DHT22;6544;51.666;6.634;2023-02-28T16:20:21;6.20;99.90
12959;DHT22;6544;51.666;6.634;2023-02-28T16:22:49;6.00;99.90
12959;DHT22;6544;51.666;6.634;2023-02-28T16:25:18;6.10;99.90
12959;DHT22;6544;51.666;6.634;2023-02-28T16:27:48;6.00;99.90
12959;DHT22;6544;51.666;6.634;2023-02-28T16:30:19;6.00;99.90
12959;DHT22;6544;51.666;6.634;2023-02-28T16:32:47;5.90;99.90
12959;DHT22;6544;51.666;6.634;2023-02-28T16:35:14;5.80;99.90
12959;DHT22;6544;51.666;6.634;2023-02-28T16:37:41;5.80;99.90
12959;DHT22;6544;51.666;6.634;2023-02-28T16:40:13;5.70;99.90
12959;DHT22;6544;51.666;6.634;2023-02-28T16:42:41;5.70;99.90
12959;DHT22;6544;51.666;6.634;2023-02-28T16:45:15;5.60;99.90
12959;DHT22;6544;51.666;6.634;2023-02-28T16:47:44;5.60;99.90
12959;DHT22;6544;51.666;6.634;2023-02-28T16:50:16;5.60;99.90
12959;DHT22;6544;51.666;6.634;2023-02-28T16:52:44;5.70;1.00
12959;DHT22;6544;51.666;6.634;2023-02-28T16:55:11;5.80;1.00
12959;DHT22;6544;51.666;6.634;2023-02-28T16:57:39;5.80;1.00
12959;DHT22;6544;51.666;6.634;2023-02-28T17:00:08;5.70;1.00
12959;DHT22;6544;51.666;6.634;2023-02-28T17:02:39;5.60;1.00